createdAt,value
2022-08-17T00:00:43.957Z,6.63
2022-08-17T00:03:03.321Z,6.20
2022-08-17T00:05:04.776Z,6.55
2022-08-17T00:07:06.043Z,7.68
2022-08-17T00:09:07.335Z,7.88
2022-08-17T00:11:10.631Z,9.18
2022-08-17T00:13:14.298Z,8.77
2022-08-17T00:15:15.899Z,6.28
2022-08-17T00:17:18.125Z,6.28
2022-08-17T00:19:22.864Z,7.07
2022-08-17T00:21:25.488Z,8.60
2022-08-17T00:23:27.532Z,6.00
2022-08-17T00:25:28.898Z,7.55
2022-08-17T00:27:30.201Z,7.35
2022-08-17T00:29:31.686Z,8.07
2022-08-17T00:31:34.362Z,8.43
2022-08-17T00:33:37.297Z,7.80
2022-08-17T00:35:40.276Z,5.68
2022-08-17T00:37:42.038Z,8.48
2022-08-17T00:39:43.610Z,6.20
2022-08-17T00:41:44.943Z,5.38
2022-08-17T00:43:46.199Z,6.72
2022-08-17T00:45:48.542Z,5.53
2022-08-17T00:47:49.898Z,6.22
2022-08-17T00:49:51.197Z,5.90
2022-08-17T00:51:57.184Z,6.03
2022-08-17T00:54:01.289Z,6.82
2022-08-17T00:56:04.608Z,6.28
2022-08-17T00:58:06.340Z,6.88
2022-08-17T01:00:19.481Z,6.10
2022-08-17T01:02:21.673Z,6.18
2022-08-17T01:04:23.610Z,8.32
2022-08-17T01:06:25.228Z,5.78
2022-08-17T01:08:27.938Z,5.88
2022-08-17T01:10:58.555Z,5.60
2022-08-17T01:12:54.113Z,5.43
2022-08-17T01:14:55.419Z,5.88
2022-08-17T01:16:56.782Z,7.10
2022-08-17T01:19:02.675Z,6.07
2022-08-17T01:21:07.476Z,5.93
2022-08-17T01:23:08.756Z,6.07
2022-08-17T01:25:11.355Z,5.45
2022-08-17T01:27:13.661Z,6.30
2022-08-17T01:29:15.293Z,5.85
2022-08-17T01:31:16.696Z,7.07
2022-08-17T01:33:17.999Z,6.18
2022-08-17T01:35:19.303Z,5.40
2022-08-17T01:37:27.623Z,6.25
2022-08-17T01:39:31.634Z,5.60
2022-08-17T01:41:33.406Z,6.00
2022-08-17T01:43:39.565Z,5.82
2022-08-17T01:45:45.163Z,7.28
2022-08-17T01:47:46.550Z,7.25
2022-08-17T01:49:48.290Z,6.20
2022-08-17T01:51:49.594Z,6.15
2022-08-17T01:53:54.718Z,7.25
2022-08-17T01:55:58.035Z,7.22
2022-08-17T01:57:59.525Z,5.88
2022-08-17T02:00:05.532Z,6.40
2022-08-17T02:02:07.430Z,6.43
2022-08-17T02:04:08.926Z,7.78
2022-08-17T02:06:11.986Z,5.90
2022-08-17T02:08:37.240Z,6.18
2022-08-17T02:10:46.692Z,6.88
2022-08-17T02:12:50.429Z,6.03
2022-08-17T02:14:51.812Z,6.45
2022-08-17T02:16:53.213Z,6.32
2022-08-17T02:18:54.503Z,7.97
2022-08-17T02:20:56.390Z,6.25
2022-08-17T02:23:02.156Z,6.03
2022-08-17T02:25:05.566Z,5.88
2022-08-17T02:27:06.915Z,7.93
2022-08-17T02:29:08.416Z,8.82
2022-08-17T02:31:11.139Z,6.00
2022-08-17T02:33:12.698Z,6.18
2022-08-17T02:35:14.690Z,6.35
2022-08-17T02:37:20.771Z,5.78
2022-08-17T02:39:22.046Z,7.20
2022-08-17T02:41:23.322Z,7.55
2022-08-17T02:43:25.499Z,7.78
2022-08-17T02:45:27.005Z,7.07
2022-08-17T02:47:28.306Z,6.30
2022-08-17T02:49:29.616Z,6.13
2022-08-17T02:51:31.136Z,6.32
2022-08-17T02:53:35.996Z,6.85
2022-08-17T02:55:40.058Z,6.78
2022-08-17T02:57:41.424Z,5.88
2022-08-17T02:59:48.388Z,6.30
2022-08-17T03:01:50.518Z,4.82
2022-08-17T03:03:51.904Z,7.07
2022-08-17T03:05:53.419Z,6.30
2022-08-17T03:07:55.381Z,5.20
2022-08-17T03:09:56.760Z,5.00
2022-08-17T03:12:06.957Z,6.28
2022-08-17T03:14:08.287Z,6.30
2022-08-17T03:16:09.851Z,5.97
2022-08-17T03:18:24.149Z,5.40
2022-08-17T03:20:28.909Z,5.38
2022-08-17T03:22:36.035Z,6.18
2022-08-17T03:24:49.483Z,5.10
2022-08-17T03:26:50.789Z,5.63
2022-08-17T03:28:52.066Z,6.78
2022-08-17T03:30:53.626Z,7.88
2022-08-17T03:32:55.830Z,6.53
2022-08-17T03:34:58.085Z,6.38
2022-08-17T03:36:59.397Z,6.45
2022-08-17T03:39:00.703Z,6.88
2022-08-17T03:41:03.102Z,5.40
2022-08-17T03:43:09.025Z,5.82
2022-08-17T03:45:15.127Z,4.97
2022-08-17T03:47:35.994Z,5.88
2022-08-17T03:52:16.504Z,5.72
2022-08-17T03:54:36.127Z,5.93
2022-08-17T03:56:43.753Z,6.45
2022-08-17T03:58:45.739Z,5.40
2022-08-17T04:00:47.236Z,5.72
2022-08-17T04:02:48.829Z,5.95
2022-08-17T04:04:54.079Z,5.65
2022-08-17T04:06:55.609Z,7.13
2022-08-17T04:08:56.904Z,7.68
2022-08-17T04:10:58.713Z,5.30
2022-08-17T04:13:00.226Z,4.85
2022-08-17T04:15:01.591Z,5.10
2022-08-17T04:17:03.103Z,6.25
2022-08-17T04:19:05.268Z,5.88
2022-08-17T04:21:09.129Z,6.95
2022-08-17T04:23:12.263Z,7.38
2022-08-17T04:25:18.084Z,7.65
2022-08-17T04:27:19.407Z,6.47
2022-08-17T04:29:21.274Z,7.57
2022-08-17T04:31:22.845Z,7.03
2022-08-17T04:33:25.373Z,6.25
2022-08-17T04:35:29.010Z,7.82
2022-08-17T04:37:30.436Z,6.32
2022-08-17T04:39:33.880Z,5.70
2022-08-17T04:41:53.781Z,6.45
2022-08-17T04:43:58.183Z,5.53
2022-08-17T04:46:00.842Z,6.20
2022-08-17T04:48:02.274Z,6.68
2022-08-17T04:50:04.348Z,5.65
2022-08-17T04:52:05.692Z,5.53
2022-08-17T04:54:09.106Z,5.97
2022-08-17T04:56:11.686Z,5.82
2022-08-17T04:58:19.491Z,6.30
2022-08-17T05:00:20.956Z,6.45
2022-08-17T05:02:22.286Z,8.30
2022-08-17T05:04:33.966Z,10.30
2022-08-17T05:06:36.913Z,8.10
2022-08-17T05:08:38.811Z,7.20
2022-08-17T05:10:45.554Z,7.53
2022-08-17T05:12:47.236Z,10.68
2022-08-17T05:14:48.531Z,7.78
2022-08-17T05:16:51.023Z,9.68
2022-08-17T05:18:52.703Z,7.10
2022-08-17T05:20:54.275Z,7.40
2022-08-17T05:22:57.751Z,9.07
2022-08-17T05:24:59.053Z,7.18
2022-08-17T05:27:06.281Z,7.70
2022-08-17T05:29:08.130Z,6.78
2022-08-17T05:31:09.607Z,6.90
2022-08-17T05:33:12.373Z,7.22
2022-08-17T05:35:13.702Z,8.07
2022-08-17T05:37:15.006Z,10.43
2022-08-17T05:39:17.435Z,8.68
2022-08-17T05:41:18.848Z,7.07
2022-08-17T05:43:24.507Z,9.07
2022-08-17T05:45:39.914Z,8.07
2022-08-17T05:47:47.435Z,10.15
2022-08-17T05:49:48.994Z,7.03
2022-08-17T05:52:08.885Z,7.85
2022-08-17T05:54:31.091Z,6.40
2022-08-17T05:56:50.891Z,7.90
2022-08-17T05:59:00.248Z,6.77
2022-08-17T06:01:10.473Z,7.53
2022-08-17T06:03:24.106Z,8.07
2022-08-17T06:05:31.296Z,6.13
2022-08-17T06:07:51.243Z,6.97
2022-08-17T06:09:58.442Z,6.07
2022-08-17T06:12:07.831Z,7.78
2022-08-17T06:14:29.619Z,5.93
2022-08-17T06:16:36.173Z,6.45
2022-08-17T06:18:49.571Z,5.78
2022-08-17T06:20:53.197Z,7.32
2022-08-17T06:22:57.688Z,5.45
2022-08-17T06:25:10.065Z,6.78
2022-08-17T06:27:20.939Z,6.85
2022-08-17T06:31:30.915Z,5.57
2022-08-17T06:33:35.311Z,6.32
2022-08-17T06:35:42.241Z,5.75
2022-08-17T06:37:50.254Z,6.50
2022-08-17T06:40:02.502Z,6.05
2022-08-17T06:43:02.465Z,5.65
2022-08-17T06:44:51.316Z,8.55
2022-08-17T06:46:56.103Z,4.47
2022-08-17T06:48:57.483Z,5.88
2022-08-17T06:51:01.660Z,8.52
2022-08-17T06:53:17.897Z,7.22
2022-08-17T06:55:22.478Z,6.10
2022-08-17T06:57:26.561Z,8.63
2022-08-17T06:59:55.013Z,5.75
2022-08-17T07:01:56.337Z,6.47
2022-08-17T07:03:57.646Z,6.32
2022-08-17T07:06:00.989Z,6.15
2022-08-17T07:08:14.657Z,6.82
2022-08-17T07:10:16.163Z,5.78
2022-08-17T07:12:19.341Z,6.63
2022-08-17T07:14:39.316Z,6.75
2022-08-17T07:16:41.045Z,5.95
2022-08-17T07:18:43.770Z,5.13
2022-08-17T07:20:47.936Z,5.50
2022-08-17T07:23:04.835Z,5.90
2022-08-17T07:25:07.940Z,6.10
2022-08-17T07:27:09.323Z,6.75
2022-08-17T07:29:12.860Z,6.20
2022-08-17T07:31:17.384Z,9.02
2022-08-17T07:33:23.673Z,5.25
2022-08-17T07:35:31.328Z,5.55
2022-08-17T07:37:40.787Z,7.75
2022-08-17T07:40:04.463Z,7.28
2022-08-17T07:42:04.078Z,4.80
2022-08-17T07:44:10.866Z,6.55
2022-08-17T07:46:44.623Z,5.50
2022-08-17T07:48:49.632Z,4.93
2022-08-17T07:50:53.094Z,6.40
2022-08-17T07:52:54.606Z,8.48
2022-08-17T07:54:56.284Z,7.97
2022-08-17T07:57:00.197Z,8.35
2022-08-17T07:59:12.253Z,9.63
2022-08-17T08:01:18.133Z,9.48
2022-08-17T08:03:26.156Z,6.45
2022-08-17T08:05:48.577Z,6.50
2022-08-17T08:07:56.540Z,6.75
2022-08-17T08:10:27.911Z,5.20
2022-08-17T08:12:34.276Z,7.47
2022-08-17T08:14:38.554Z,7.05
2022-08-17T08:16:40.446Z,5.30
2022-08-17T08:18:55.651Z,7.13
2022-08-17T08:21:10.254Z,6.30
2022-08-17T08:23:16.750Z,7.60
2022-08-17T08:25:40.841Z,6.18
2022-08-17T08:28:14.619Z,5.55
2022-08-17T08:30:18.395Z,5.85
2022-08-17T08:32:20.861Z,7.55
2022-08-17T08:34:59.103Z,8.30
2022-08-17T08:37:17.837Z,6.03
2022-08-17T08:39:24.559Z,5.93
2022-08-17T08:41:31.496Z,5.78
2022-08-17T08:43:42.344Z,7.68
2022-08-17T08:46:02.064Z,7.20
2022-08-17T08:48:05.721Z,6.18
2022-08-17T08:50:37.209Z,6.35
2022-08-17T08:53:02.665Z,5.75
2022-08-17T08:55:07.809Z,5.82
2022-08-17T08:57:24.356Z,5.35
2022-08-17T08:59:32.854Z,5.57
2022-08-17T09:01:49.723Z,6.80
2022-08-17T09:04:10.942Z,6.20
2022-08-17T09:06:39.088Z,7.55
2022-08-17T09:08:48.566Z,7.53
2022-08-17T09:11:07.638Z,5.07
2022-08-17T09:13:22.012Z,5.30
2022-08-17T09:15:33.551Z,6.40
2022-08-17T09:17:39.043Z,5.03
2022-08-17T09:19:49.876Z,7.25
2022-08-17T09:21:55.172Z,9.30
2022-08-17T09:24:04.960Z,7.60
2022-08-17T09:26:10.229Z,5.53
2022-08-17T09:28:19.085Z,8.75
2022-08-17T09:30:20.728Z,10.60
2022-08-17T09:32:31.124Z,6.88
2022-08-17T09:34:34.586Z,4.78
2022-08-17T09:36:50.082Z,5.35
2022-08-17T09:39:03.200Z,5.88
2022-08-17T09:41:23.897Z,7.38
2022-08-17T09:43:25.351Z,5.30
2022-08-17T09:45:37.629Z,7.00
2022-08-17T09:47:42.012Z,5.18
2022-08-17T09:49:58.601Z,4.93
2022-08-17T09:52:17.739Z,9.15
2022-08-17T09:54:38.635Z,6.25
2022-08-17T09:57:25.679Z,4.57
2022-08-17T09:59:20.470Z,4.13
2022-08-17T10:01:24.810Z,6.82
2022-08-17T10:03:41.067Z,6.03
2022-08-17T10:05:48.305Z,8.98
2022-08-17T10:08:21.775Z,6.43
2022-08-17T10:10:36.020Z,5.80
2022-08-17T10:12:43.290Z,7.28
2022-08-17T10:15:08.059Z,5.13
2022-08-17T10:17:29.667Z,4.57
2022-08-17T10:19:36.995Z,5.97
2022-08-17T10:22:00.676Z,3.42
2022-08-17T10:24:27.162Z,7.00
2022-08-17T10:26:54.161Z,3.90
2022-08-17T10:29:03.972Z,3.95
2022-08-17T10:33:33.295Z,3.20
2022-08-17T10:35:37.586Z,3.17
2022-08-17T10:37:44.225Z,4.22
2022-08-17T10:39:52.356Z,2.97
2022-08-17T10:41:57.483Z,3.15
2022-08-17T10:44:38.455Z,3.92
2022-08-17T10:46:42.822Z,4.32
2022-08-17T10:49:04.095Z,3.60
2022-08-17T10:51:40.469Z,3.85
2022-08-17T10:53:41.810Z,5.65
2022-08-17T10:56:05.575Z,6.32
2022-08-17T10:58:24.382Z,4.88
2022-08-17T11:00:40.393Z,4.55
2022-08-17T11:02:52.543Z,4.75
2022-08-17T11:05:18.005Z,5.18
2022-08-17T11:07:37.607Z,5.72
2022-08-17T11:09:47.907Z,5.97
2022-08-17T11:14:03.918Z,4.55
2022-08-17T11:16:26.075Z,4.10
2022-08-17T11:18:35.656Z,4.78
2022-08-17T11:20:38.631Z,5.30
2022-08-17T11:22:39.919Z,6.35
2022-08-17T11:24:43.457Z,4.78
2022-08-17T11:27:07.510Z,3.22
2022-08-17T11:29:20.774Z,3.22
2022-08-17T11:31:39.138Z,3.28
2022-08-17T11:33:41.059Z,4.45
2022-08-17T11:35:48.017Z,4.72
2022-08-17T11:38:07.716Z,2.95
2022-08-17T11:40:13.641Z,3.80
2022-08-17T11:42:38.531Z,3.00
2022-08-17T11:44:39.813Z,5.32
2022-08-17T11:47:08.830Z,3.97
2022-08-17T11:49:34.735Z,4.55
2022-08-17T11:51:54.575Z,5.20
2022-08-17T11:54:28.916Z,4.03
2022-08-17T11:56:32.584Z,4.03
2022-08-17T11:58:38.844Z,3.50
2022-08-17T12:00:46.004Z,3.30
2022-08-17T12:02:48.820Z,3.55
2022-08-17T12:05:12.048Z,4.47
2022-08-17T12:07:17.599Z,3.30
2022-08-17T12:09:21.083Z,3.90
2022-08-17T12:12:01.607Z,3.40
2022-08-17T12:13:57.520Z,4.10
2022-08-17T12:15:59.217Z,3.50
2022-08-17T12:18:00.490Z,3.70
2022-08-17T12:20:19.555Z,3.35
2022-08-17T12:22:41.980Z,3.05
2022-08-17T12:24:55.283Z,3.20
2022-08-17T12:26:58.164Z,2.92
2022-08-17T12:29:05.131Z,3.53
2022-08-17T12:31:11.504Z,3.28
2022-08-17T12:33:13.674Z,4.38
2022-08-17T12:35:29.874Z,3.05
2022-08-17T12:37:32.849Z,3.70
2022-08-17T12:39:34.271Z,3.05
2022-08-17T12:41:40.696Z,3.13
2022-08-17T12:43:42.003Z,3.78
2022-08-17T12:45:43.317Z,3.13
2022-08-17T12:47:45.246Z,4.85
2022-08-17T12:49:48.341Z,3.25
2022-08-17T12:51:50.296Z,3.33
2022-08-17T12:53:53.692Z,3.17
2022-08-17T12:55:57.590Z,3.85
2022-08-17T12:57:59.639Z,4.18
2022-08-17T13:00:21.902Z,3.53
2022-08-17T13:02:32.631Z,4.75
2022-08-17T13:04:33.944Z,3.10
2022-08-17T13:06:35.643Z,3.90
2022-08-17T13:08:38.686Z,3.42
2022-08-17T13:10:39.976Z,3.55
2022-08-17T13:12:41.268Z,4.25
2022-08-17T13:14:45.860Z,5.88
2022-08-17T13:16:48.586Z,3.67
2022-08-17T13:18:50.063Z,3.45
2022-08-17T13:20:54.142Z,4.18
2022-08-17T13:22:57.651Z,4.60
2022-08-17T13:25:03.575Z,3.97
2022-08-17T13:27:09.966Z,3.50
2022-08-17T13:29:25.227Z,4.50
2022-08-17T13:31:27.898Z,4.45
2022-08-17T13:33:43.361Z,3.92
2022-08-17T13:35:47.104Z,3.65
2022-08-17T13:37:59.551Z,3.40
2022-08-17T13:40:07.490Z,3.83
2022-08-17T13:42:27.492Z,5.25
2022-08-17T13:44:29.755Z,3.85
2022-08-17T13:46:32.364Z,4.15
2022-08-17T13:48:33.901Z,3.90
2022-08-17T13:50:40.049Z,3.00
2022-08-17T13:52:42.950Z,4.15
2022-08-17T13:54:50.771Z,5.28
2022-08-17T13:57:01.920Z,4.55
2022-08-17T13:59:05.705Z,6.38
2022-08-17T14:01:25.608Z,5.15
2022-08-17T14:03:27.180Z,3.58
2022-08-17T14:05:28.988Z,3.95
2022-08-17T14:07:35.009Z,4.03
2022-08-17T14:09:38.303Z,4.65
2022-08-17T14:11:39.824Z,4.45
2022-08-17T14:13:41.125Z,4.40
2022-08-17T14:15:55.486Z,4.22
2022-08-17T14:17:57.974Z,4.43
2022-08-17T14:19:59.271Z,9.07
2022-08-17T14:22:01.028Z,4.88
2022-08-17T14:24:02.439Z,4.57
2022-08-17T14:26:04.467Z,4.50
2022-08-17T14:28:06.896Z,4.18
2022-08-17T14:30:08.303Z,5.65
2022-08-17T14:32:20.680Z,4.85
2022-08-17T14:34:23.014Z,7.65
2022-08-17T14:36:24.587Z,5.82
2022-08-17T14:38:26.069Z,6.63
2022-08-17T14:40:27.971Z,10.30
2022-08-17T14:42:30.774Z,7.60
2022-08-17T14:44:32.508Z,10.40
2022-08-17T14:46:33.828Z,7.60
2022-08-17T14:48:38.240Z,7.65
2022-08-17T14:50:40.982Z,11.35
2022-08-17T14:52:42.310Z,11.07
2022-08-17T14:54:45.794Z,10.95
2022-08-17T14:56:47.299Z,8.90
2022-08-17T14:58:58.595Z,6.75
2022-08-17T15:00:59.981Z,10.45
2022-08-17T15:03:01.650Z,6.28
2022-08-17T15:05:04.199Z,6.05
2022-08-17T15:07:06.408Z,5.70
2022-08-17T15:09:07.888Z,5.93
2022-08-17T15:11:11.907Z,5.72
2022-08-17T15:13:17.685Z,5.70
2022-08-17T15:15:19.805Z,5.60
2022-08-17T15:17:21.447Z,6.05
2022-08-17T15:19:22.763Z,8.68
2022-08-17T15:21:24.050Z,5.78
2022-08-17T15:23:26.242Z,6.55
2022-08-17T15:25:29.217Z,6.50
2022-08-17T15:27:32.222Z,7.40
2022-08-17T15:29:34.172Z,6.60
2022-08-17T15:31:35.781Z,6.65
2022-08-17T15:33:37.262Z,7.05
2022-08-17T15:35:39.067Z,7.07
2022-08-17T15:37:40.392Z,6.65
2022-08-17T15:39:41.929Z,9.85
2022-08-17T15:41:43.259Z,8.95
2022-08-17T15:43:45.570Z,6.53
2022-08-17T15:45:52.541Z,6.55
2022-08-17T15:48:01.147Z,7.45
2022-08-17T15:50:05.428Z,6.95
2022-08-17T15:52:20.386Z,5.75
2022-08-17T15:54:22.761Z,8.02
2022-08-17T15:56:25.709Z,7.13
2022-08-17T15:58:29.895Z,7.35
2022-08-17T16:00:37.487Z,6.75
2022-08-17T16:03:45.507Z,5.65
2022-08-17T16:05:21.873Z,6.10
2022-08-17T16:07:26.870Z,5.53
2022-08-17T16:09:28.277Z,6.28
2022-08-17T16:11:29.619Z,8.40
2022-08-17T16:13:31.368Z,8.48
2022-08-17T16:15:32.694Z,5.45
2022-08-17T16:17:38.763Z,5.57
2022-08-17T16:19:41.967Z,5.28
2022-08-17T16:21:43.459Z,6.90
2022-08-17T16:23:45.408Z,5.63
2022-08-17T16:25:53.738Z,5.55
2022-08-17T16:27:55.544Z,7.82
2022-08-17T16:29:56.944Z,6.78
2022-08-17T16:31:58.339Z,7.25
2022-08-17T16:34:15.866Z,5.60
2022-08-17T16:36:21.620Z,7.90
2022-08-17T16:38:23.000Z,5.35
2022-08-17T16:40:25.960Z,6.10
2022-08-17T16:42:31.128Z,6.00
2022-08-17T16:44:32.484Z,5.82
2022-08-17T16:46:33.807Z,5.63
2022-08-17T16:48:35.116Z,5.70
2022-08-17T16:50:36.626Z,6.05
2022-08-17T16:52:40.005Z,5.72
2022-08-17T16:54:43.400Z,6.20
2022-08-17T16:56:46.007Z,6.45
2022-08-17T16:58:47.454Z,6.05
2022-08-17T17:00:52.325Z,6.20
2022-08-17T17:02:54.580Z,5.93
2022-08-17T17:05:01.027Z,7.35
2022-08-17T17:07:20.867Z,7.25
2022-08-17T17:09:26.222Z,5.65
2022-08-17T17:11:33.930Z,5.47
2022-08-17T17:13:38.844Z,6.90
2022-08-17T17:16:06.279Z,6.88
2022-08-17T17:18:11.441Z,8.00
2022-08-17T17:20:15.691Z,6.95
2022-08-17T17:22:40.218Z,8.88
2022-08-17T17:24:49.979Z,6.50
2022-08-17T17:27:01.483Z,9.35
2022-08-17T17:29:08.298Z,6.22
2022-08-17T17:31:17.851Z,6.00
2022-08-17T17:33:22.484Z,7.18
2022-08-17T17:35:32.436Z,8.40
2022-08-17T17:37:35.012Z,7.65
2022-08-17T17:39:41.405Z,10.40
2022-08-17T17:41:52.756Z,6.95
2022-08-17T17:43:58.196Z,9.38
2022-08-17T17:46:37.677Z,5.88
2022-08-17T17:48:38.983Z,7.63
2022-08-17T17:50:58.645Z,7.50
2022-08-17T17:53:09.450Z,6.40
2022-08-17T17:55:17.027Z,9.20
2022-08-17T17:57:37.121Z,8.10
2022-08-17T17:59:57.233Z,8.05
2022-08-17T18:02:10.657Z,9.85
2022-08-17T18:04:30.293Z,6.30
2022-08-17T18:06:37.277Z,5.70
2022-08-17T18:08:38.536Z,7.57
2022-08-17T18:10:55.654Z,9.23
2022-08-17T18:13:16.752Z,5.72
2022-08-17T18:15:21.505Z,6.03
2022-08-17T18:17:23.586Z,8.25
2022-08-17T18:19:25.969Z,7.95
2022-08-17T18:21:38.147Z,6.78
2022-08-17T18:23:45.797Z,5.00
2022-08-17T18:25:48.544Z,5.72
2022-08-17T18:27:51.727Z,5.35
2022-08-17T18:29:54.454Z,5.18
2022-08-17T18:32:14.817Z,4.45
2022-08-17T18:34:45.935Z,6.50
2022-08-17T18:36:44.843Z,6.00
2022-08-17T18:38:46.201Z,6.05
2022-08-17T18:40:57.673Z,8.10
2022-08-17T18:43:07.374Z,8.48
2022-08-17T18:45:09.239Z,7.53
2022-08-17T18:47:15.667Z,6.20
2022-08-17T18:49:19.949Z,7.60
2022-08-17T18:51:39.724Z,6.85
2022-08-17T18:53:42.758Z,9.35
2022-08-17T18:55:44.103Z,6.28
2022-08-17T18:57:47.309Z,8.32
2022-08-17T18:59:48.754Z,6.63
2022-08-17T19:01:58.461Z,6.50
2022-08-17T19:04:00.528Z,5.78
2022-08-17T19:06:28.329Z,5.32
2022-08-17T19:08:29.620Z,6.05
2022-08-17T19:10:46.261Z,7.47
2022-08-17T19:13:00.663Z,9.13
2022-08-17T19:15:02.928Z,7.80
2022-08-17T19:17:16.478Z,9.18
2022-08-17T19:19:17.794Z,9.27
2022-08-17T19:21:25.506Z,6.60
2022-08-17T19:23:29.987Z,8.82
2022-08-17T19:25:35.969Z,7.32
2022-08-17T19:27:46.321Z,7.50
2022-08-17T19:30:07.627Z,8.98
2022-08-17T19:32:10.549Z,8.15
2022-08-17T19:34:14.295Z,6.60
2022-08-17T19:36:21.476Z,6.60
2022-08-17T19:38:22.926Z,7.53
2022-08-17T19:40:51.722Z,8.50
2022-08-17T19:43:10.971Z,11.13
2022-08-17T19:47:43.120Z,6.60
2022-08-17T19:49:50.157Z,7.07
2022-08-17T19:51:56.008Z,7.20
2022-08-17T19:54:07.139Z,6.65
2022-08-17T19:56:20.570Z,6.80
2022-08-17T19:58:40.439Z,7.10
2022-08-17T20:00:46.855Z,7.63
2022-08-17T20:02:53.158Z,8.73
2022-08-17T20:04:58.263Z,7.35
2022-08-17T20:07:02.327Z,7.00
2022-08-17T20:09:14.783Z,7.43
2022-08-17T20:11:41.208Z,7.60
2022-08-17T20:14:02.784Z,6.82
2022-08-17T20:16:04.859Z,7.97
2022-08-17T20:18:10.314Z,6.32
2022-08-17T20:20:30.267Z,7.05
2022-08-17T20:22:36.889Z,7.80
2022-08-17T20:25:07.619Z,7.63
2022-08-17T20:27:13.536Z,6.95
2022-08-17T20:29:14.783Z,6.00
2022-08-17T20:31:51.274Z,7.60
2022-08-17T20:33:52.704Z,7.63
2022-08-17T20:36:12.810Z,6.57
2022-08-17T20:38:34.085Z,7.60
2022-08-17T20:40:38.331Z,8.40
2022-08-17T20:42:39.859Z,6.97
2022-08-17T20:44:42.171Z,6.97
2022-08-17T20:46:55.333Z,8.13
2022-08-17T20:48:58.471Z,8.65
2022-08-17T20:51:11.600Z,5.50
2022-08-17T20:53:32.844Z,6.50
2022-08-17T20:55:34.222Z,6.47
2022-08-17T20:57:35.650Z,6.22
2022-08-17T20:59:55.233Z,6.53
2022-08-17T21:02:07.226Z,7.93
2022-08-17T21:04:34.543Z,7.30
2022-08-17T21:06:55.996Z,8.15
2022-08-17T21:09:17.493Z,7.53
2022-08-17T21:11:56.625Z,7.72
2022-08-17T21:14:10.179Z,6.72
2022-08-17T21:16:29.764Z,6.88
2022-08-17T21:18:39.898Z,6.88
2022-08-17T21:21:00.033Z,7.80
2022-08-17T21:23:09.015Z,10.05
2022-08-17T21:25:22.445Z,8.93
2022-08-17T21:27:30.072Z,11.13
2022-08-17T21:29:33.956Z,9.32
2022-08-17T21:31:43.117Z,8.75
2022-08-17T21:34:05.547Z,11.32
2022-08-17T21:36:12.415Z,9.88
2022-08-17T21:38:16.067Z,9.20
2022-08-17T21:40:25.797Z,10.07
2022-08-17T21:42:31.523Z,10.90
2022-08-17T21:44:37.257Z,10.73
2022-08-17T21:46:42.729Z,10.05
2022-08-17T21:48:49.885Z,9.43
2022-08-17T21:51:28.656Z,8.98
2022-08-17T21:53:36.539Z,8.20
2022-08-17T21:55:37.885Z,7.38
2022-08-17T21:57:41.447Z,8.43
2022-08-17T21:59:58.607Z,6.53
2022-08-17T22:02:01.151Z,6.90
2022-08-17T22:04:17.833Z,8.05
2022-08-17T22:06:24.850Z,7.15
2022-08-17T22:08:26.322Z,8.07
2022-08-17T22:10:33.548Z,6.47
2022-08-17T22:12:34.875Z,6.13
2022-08-17T22:14:52.554Z,6.72
2022-08-17T22:17:17.320Z,7.10
2022-08-17T22:19:19.037Z,8.73
2022-08-17T22:21:22.754Z,9.25
2022-08-17T22:23:47.884Z,7.38
2022-08-17T22:26:00.562Z,8.00
2022-08-17T22:28:04.436Z,8.30
2022-08-17T22:30:16.199Z,8.30
2022-08-17T22:32:31.184Z,6.40
2022-08-17T22:34:32.540Z,8.20
2022-08-17T22:36:34.930Z,7.55
2022-08-17T22:38:36.594Z,8.55
2022-08-17T22:40:39.519Z,6.30
2022-08-17T22:42:47.183Z,6.35
2022-08-17T22:44:49.980Z,7.05
2022-08-17T22:47:11.101Z,8.52
2022-08-17T22:49:20.611Z,8.82
2022-08-17T22:51:22.592Z,10.00
2022-08-17T22:53:42.630Z,8.10
2022-08-17T22:56:12.405Z,10.90
2022-08-17T22:58:33.798Z,9.60
2022-08-17T23:00:45.816Z,9.75
2022-08-17T23:03:05.441Z,11.18
2022-08-17T23:05:10.093Z,11.57
2022-08-17T23:07:11.453Z,10.85
2022-08-17T23:09:12.834Z,9.45
2022-08-17T23:11:15.118Z,8.32
2022-08-17T23:13:16.619Z,7.57
2022-08-17T23:15:19.034Z,8.65
2022-08-17T23:17:20.856Z,5.80
2022-08-17T23:19:22.186Z,5.65
2022-08-17T23:21:27.346Z,8.07
2022-08-17T23:23:29.017Z,8.18
2022-08-17T23:25:31.837Z,6.55
2022-08-17T23:27:33.126Z,5.28
2022-08-17T23:29:34.910Z,7.68
2022-08-17T23:31:37.151Z,6.57
2022-08-17T23:33:39.811Z,6.20
2022-08-17T23:35:41.237Z,7.63
2022-08-17T23:37:42.546Z,8.48
2022-08-17T23:39:47.280Z,7.45
2022-08-17T23:41:50.491Z,6.78
2022-08-17T23:43:52.696Z,7.60
2022-08-17T23:45:55.011Z,7.63
2022-08-17T23:47:56.436Z,6.97
2022-08-17T23:49:57.759Z,8.02
2022-08-17T23:52:04.216Z,5.35
2022-08-17T23:54:12.435Z,8.00
2022-08-17T23:56:14.252Z,6.95
2022-08-17T23:58:15.530Z,7.93
